Terminal Aerodrome Forecast
Issued by NWS Duluth, MN

Home | Current Version | Previous Version | Text Only | Print | Product List | Glossary On
Versions: 1 2 3 4 5 6 7 8 9 10 11 12 13 14 15 16 17 18 19 20 21 22 23 24 25 26 27 28
000
FTUS43 KDLH 170500
TAFINL
TAF
KINL 170528Z 1706/1806 06006KT P6SM VCSH OVC070
     FM171000 36005KT P6SM VCSH OVC040
     FM171500 36012KT P6SM VCSH BKN030
     FM180000 35008KT P6SM VCSH BKN045=

USA.gov is the U.S. government's official web portal to all federal, state and local government web resources and services.